Carson Valley, Nevada Weather observations

Data are for 10 minute period ending at time listed.
 Day   Time   Solar   Ave.   Ave.  Ave.  Vector  Max.   Baro.   Total    
  of    of     Rad.   Air    Rel.  Wind   Wind   Wind  Press.  Precip.   
Year   Day            Temp.  Hum.  Speed  Dir.   Gust                    
2016   (PST)  Kw/m2    F      %     mph   deg.    mph    mb.     in.     
-------------------------------------------------------------------------
 182   11:00   0.96   83.7    20    1.2   230     2.3   857.7    0.00 
 182   11:10   0.97   85.6    18    0.6   190     1.9   857.5    0.00 
 182   11:20   0.98   87.1    19    1.3   221     3.4   857.3    0.00 
 182   11:30   0.98   86.3    16    1.2   357     2.7   857.2    0.00 
 182   11:40   0.99   87.6    15    1.5    61     3.4   857.0    0.00 
 182   11:50   0.99   87.2    15    1.1   282     2.8   856.9    0.00 
 182   12:00   0.99   86.7    17    1.8   247     3.9   856.8    0.00 
 182   12:10   0.99   87.7    15    2.0   124     5.3   856.7    0.00 
 182   12:20   0.98   87.9    14    1.4   279     3.7   856.6    0.00 
 182   12:30   0.98   87.5    18    1.2   254     2.9   856.5    0.00 
 182   12:40   0.98   89.0    16    1.2   342     4.5   856.3    0.00 
 182   12:50   0.96   89.4    18    1.8   124     4.5   856.1    0.00 
 182   13:00   0.95   90.0    15    1.6    47     4.3   856.0    0.00 
 182   13:10   0.95   90.3    15    1.7    77     3.9   856.0    0.00 
 182   13:20   0.94   91.1    14    1.2   182     2.6   856.0    0.00 
 182   13:30   0.93   91.0    16    2.8   351     8.2   855.8    0.00 
 182   13:40   0.91   88.7    18    5.1   311    10.2   855.8    0.00 
 182   13:50   0.89   88.3    20    6.5   317    11.9   855.6    0.00 
 182   14:00   0.87   88.7    18    6.0   321    10.9   855.4    0.00 
 182   14:10   0.86   87.9    20   11.3   287    15.6   855.2    0.00 
 182   14:20   0.84   87.7    20   11.8   284    20.3   855.0    0.00 
 182   14:30   0.82   87.5    19   12.4   276    18.3   854.9    0.00 
 182   14:40   0.79   87.4    18   13.7   283    20.2   854.8    0.00 
 182   14:50   0.77   87.5    19   12.3   284    19.1   854.8    0.00 
 182   15:00   0.75   87.4    19   11.9   280    19.4   854.7    0.00 
 182   15:10   0.72   87.5    19   12.3   285    18.9   854.7    0.00 
 182   15:20   0.69   87.3    19   14.1   274    22.1   854.6    0.00 
 182   15:30   0.67   87.1    20   12.8   286    21.9   854.4    0.00 
 182   15:40   0.65   87.1    19   13.6   276    22.7   854.4    0.00 
 182   15:50   0.62   86.7    19   14.5   281    24.8   854.3    0.00 
 182   16:00   0.59   86.4    20   12.9   286    21.5   854.2    0.00 
 182   16:10   0.56   86.2    20   14.7   286    25.3   854.0    0.00 
 182   16:20   0.53   85.7    20   16.3   282    24.8   853.9    0.00 
 182   16:30   0.50   85.4    20   15.9   275    25.7   853.9    0.00 
 182   16:40   0.46   85.4    20   15.3   277    24.9   853.8    0.00 
 182   16:50   0.43   85.1    20   17.6   270    29.1   853.8    0.00 
 182   17:00   0.40   84.7    20   13.2   274    21.3   853.9    0.00 
 182   17:10   0.36   83.8    21   14.8   272    23.5   853.8    0.00 
 182   17:20   0.33   83.4    21   16.6   276    24.8   853.8    0.00 
 182   17:30   0.30   83.0    21   14.6   274    22.6   854.0    0.00 
 182   17:40   0.27   82.8    21   17.5   281    27.2   854.0    0.00 
 182   17:50   0.24   82.1    20   17.9   279    26.9   854.1    0.00 
 182   18:00   0.21   81.7    20   17.4   279    26.9   854.3    0.00 
 182   18:10   0.18   81.4    20   16.4   280    23.5   854.4    0.00 
 182   18:20   0.15   80.9    20   16.4   280    27.8   854.5    0.00 
 182   18:30   0.12   80.5    20   15.6   281    23.6   854.6    0.00 
 182   18:40   0.05   79.5    20   16.2   282    26.5   854.7    0.00 
 182   18:50   0.02   79.2    19   14.7   283    25.0   854.9    0.00 
 182   19:00   0.02   78.9    19   15.0   278    24.0   855.0    0.00 
 182   19:10   0.01   78.0    20   12.8   286    22.1   855.2    0.00 
 182   19:20   0.01   77.8    19   13.9   279    22.6   855.2    0.00 
 182   19:30   0.01   77.8    19   15.2   277    23.8   855.3    0.00 
 182   19:40   0.00   76.8    20   10.5   281    15.7   855.4    0.00 
 182   19:50   0.00   77.0    20   12.9   275    19.5   855.4    0.00 
 182   20:00   0.00   77.1    19   12.6   274    21.1   855.5    0.00 
 182   20:10   0.00   77.3    19   14.2   272    20.4   855.6    0.00 
 182   20:20   0.00   76.8    19   12.6   268    21.1   855.7    0.00 
 182   20:30   0.00   77.0    19   10.8   267    17.0   855.8    0.00 
 182   20:40   0.00   76.0    20    7.1   264    12.1   856.0    0.00 
 182   20:50   0.00   74.4    22    3.2   221     7.0   856.1    0.00 
 182   21:00   0.00   73.9    22    1.2    82     3.7   856.3    0.00 
 182   21:10   0.00   72.7    25    3.8    72     5.7   856.4    0.00 
 182   21:20   0.00   70.8    26    3.2    85     6.6   856.5    0.00 
 182   21:30   0.00   72.1    24    2.7    54     3.8   856.6    0.00 
 182   21:40   0.00   70.8    27    4.2    57     6.8   856.8    0.00 
 182   21:50   0.00   66.1    36    3.1   115     6.8   856.8    0.00 
 182   22:00   100.00  99999.0   99999  99999.0   99999   99999.0   99999.0   99999.00 
 182   22:10   100.00  99999.0   99999  99999.0   99999   99999.0   99999.0   99999.00 
 182   22:20   100.00  99999.0   99999  99999.0   99999   99999.0   99999.0   99999.00 
 182   22:30   100.00  99999.0   99999  99999.0   99999   99999.0   99999.0   99999.00 
 182   22:40   100.00  99999.0   99999  99999.0   99999   99999.0   99999.0   99999.00 
 182   22:50   100.00  99999.0   99999  99999.0   99999   99999.0   99999.0   99999.00 
 182   23:00   100.00  99999.0   99999  99999.0   99999   99999.0   99999.0   99999.00 
 182   23:10   100.00  99999.0   99999  99999.0   99999   99999.0   99999.0   99999.00 
 182   23:20   100.00  99999.0   99999  99999.0   99999   99999.0   99999.0   99999.00 
 182   23:30   100.00  99999.0   99999  99999.0   99999   99999.0   99999.0   99999.00 
 182   23:40   100.00  99999.0   99999  99999.0   99999   99999.0   99999.0   99999.00 
 182   23:50   100.00  99999.0   99999  99999.0   99999   99999.0   99999.0   99999.00 
 183    0:00   100.00  99999.0   99999  99999.0   99999   99999.0   99999.0   99999.00 
 183    0:10   100.00  99999.0   99999  99999.0   99999   99999.0   99999.0   99999.00 
 183    0:20   100.00  99999.0   99999  99999.0   99999   99999.0   99999.0   99999.00 
 183    0:30   100.00  99999.0   99999  99999.0   99999   99999.0   99999.0   99999.00 
 183    0:40   100.00  99999.0   99999  99999.0   99999   99999.0   99999.0   99999.00 
 183    0:50   100.00  99999.0   99999  99999.0   99999   99999.0   99999.0   99999.00 
 183    1:00   100.00  99999.0   99999  99999.0   99999   99999.0   99999.0   99999.00 
 183    1:10   100.00  99999.0   99999  99999.0   99999   99999.0   99999.0   99999.00 
 183    1:20   100.00  99999.0   99999  99999.0   99999   99999.0   99999.0   99999.00 
 183    1:30   100.00  99999.0   99999  99999.0   99999   99999.0   99999.0   99999.00 
 183    1:40   100.00  99999.0   99999  99999.0   99999   99999.0   99999.0   99999.00 
 183    1:50   100.00  99999.0   99999  99999.0   99999   99999.0   99999.0   99999.00 
 183    2:00   0.00   51.5    79    2.0   268     3.4   856.3    0.00 
 183    2:10   0.00   51.9    79    2.5   249     3.3   856.3    0.00 
 183    2:20   0.00   52.3    78    1.7   354     2.7   856.2    0.00 
 183    2:30   0.00   51.6    78    3.1    61     5.6   856.1    0.00 
 183    2:40   0.00   51.5    67    3.7    62     5.6   856.1    0.00 
 183    2:50   100.00  99999.0   99999  99999.0   99999   99999.0   99999.0   99999.00 
 183    3:00   0.00   50.1    73    3.7   339     6.4   856.5    0.00 
 183    3:10   0.00   48.3    78    3.4   279     4.9   856.6    0.00 
 183    3:20   0.00   49.8    72    4.4   259     5.9   856.3    0.00 
 183    3:30   0.00   51.7    70    2.7   158     4.7   856.2    0.00 
 183    3:40   0.00   51.0    71    5.6   176     7.2   856.1    0.00 
 183    3:50   0.00   49.8    76    5.2   143     6.7   856.2    0.00 
 183    4:00   0.00   49.1    78    5.2   119     6.9   856.3    0.00 
 183    4:10   0.00   49.0    77    2.5    40     6.6   856.4    0.00 
 183    4:20   0.00   47.7    79    2.6    35     4.9   856.9    0.00 
 183    4:30   0.00   48.5    78    3.3   227     5.8   856.9    0.00 
 183    4:40   0.00   47.8    82    4.1   277     7.4   856.9    0.00 
 183    4:50   0.01   48.1    78    1.3   316     2.0   856.7    0.00 
 183    5:00   0.02   49.9    72    2.9   243     5.1   856.6    0.00 
 183    5:10   0.04   49.2    77    3.0   280     5.3   856.6    0.00 
 183    5:20   0.06   50.6    74    2.5    39     3.8   856.5    0.00 
 183    5:30   0.08   50.3    77    2.4    86     4.0   856.6    0.00 
 183    5:40   0.11   51.2    77    2.3    85     3.9   856.6    0.00 
 183    5:50   0.13   53.6    72    2.1    81     3.4   856.7    0.00 
 183    6:00   0.17   55.2    70    2.3    68     4.3   856.8    0.00 
 183    6:10   0.20   57.4    64    1.4    76     2.3   856.9    0.00 
 183    6:20   0.17   57.3    65    2.7   277     4.0   857.0    0.00 
 183    6:30   0.22   56.5    70    2.7   245     4.2   857.0    0.00 
 183    6:40   0.28   58.9    63    1.3   204     2.4   857.2    0.00 
 183    6:50   0.32   61.6    55    1.7   210     3.0   857.3    0.00 
 183    7:00   0.35   63.7    49    0.9   219     1.6   857.4    0.00 
 183    7:10   0.38   64.6    52    2.5   218     3.9   857.5    0.00 
 183    7:20   0.42   65.7    52    2.1   231     3.3   857.5    0.00 
 183    7:30   0.45   66.4    49    2.0   276     3.2   857.7    0.00 
 183    7:40   0.48   67.9    39    2.6   332     3.9   857.8    0.00 
 183    7:50   0.52   69.0    40    2.5   343     3.8   857.8    0.00 
 183    8:00   0.55   69.8    36    1.5   310     2.9   857.8    0.00 
 183    8:10   0.58   70.9    35    0.9   318     2.3   857.8    0.00 
 183    8:20   0.61   71.8    32    1.2   284     2.2   857.7    0.00 
 183    8:30   0.64   73.0    31    0.9   245     2.2   857.7    0.00 
 183    8:40   0.67   75.1    30    0.7   124     2.2   857.7    0.00 
 183    8:50   0.70   75.8    30    1.4    79     2.7   857.6    0.00 
 183    9:00   0.72   75.8    31    1.0   256     2.5   857.5    0.00 
 183    9:10   0.74   76.5    32    1.3   206     2.6   857.5    0.00 
 183    9:20   0.77   77.3    33    1.4   234     3.5   857.6    0.00 
 183    9:30   0.79   77.9    34    1.3   215     3.8   857.5    0.00 
 183    9:40   0.81   79.1    33    1.4   211     3.1   857.4    0.00 
 183    9:50   0.83   80.4    28    1.3   177     3.2   857.4    0.00 
 183   10:00   0.85   80.8    28    1.1   211     2.9   857.3    0.00 
 183   10:10   0.87   82.5    27    1.6   194     3.4   857.3    0.00 
 183   10:20   0.89   82.8    25    1.7   209     3.1   857.2    0.00 
 183   10:30   0.90   82.6    27    2.2   206     4.0   857.1    0.00 
 183   10:40   0.92   85.1    23    0.9   182     2.3   857.1    0.00 
 183   10:50   0.93   85.8    22    1.2   164     2.9   856.9    0.00 

Return to Carson Valley graphs page.


Western Regional Climate Center,wrcc@dri.edu